sensor_id;sensor_type;location;lat;lon;timestamp;P1;durP1;ratioP1;P2;durP2;ratioP2
21521;SDS011;10922;45.572;10.002;2023-02-03T00:01:33;9.82;;;7.90;;
21521;SDS011;10922;45.572;10.002;2023-02-03T00:03:59;8.93;;;7.68;;
21521;SDS011;10922;45.572;10.002;2023-02-03T00:06:25;8.47;;;7.37;;
21521;SDS011;10922;45.572;10.002;2023-02-03T00:08:51;10.75;;;8.05;;
21521;SDS011;10922;45.572;10.002;2023-02-03T00:11:24;8.53;;;7.13;;
21521;SDS011;10922;45.572;10.002;2023-02-03T00:13:50;9.65;;;7.40;;
21521;SDS011;10922;45.572;10.002;2023-02-03T00:16:16;8.82;;;7.22;;
21521;SDS011;10922;45.572;10.002;2023-02-03T00:18:42;9.40;;;7.20;;
21521;SDS011;10922;45.572;10.002;2023-02-03T00:21:07;9.27;;;7.83;;
21521;SDS011;10922;45.572;10.002;2023-02-03T00:23:33;10.85;;;7.05;;
21521;SDS011;10922;45.572;10.002;2023-02-03T00:26:13;11.32;;;7.35;;
21521;SDS011;10922;45.572;10.002;2023-02-03T00:28:40;10.32;;;7.57;;
21521;SDS011;10922;45.572;10.002;2023-02-03T00:31:07;9.45;;;7.03;;
21521;SDS011;10922;45.572;10.002;2023-02-03T00:33:39;10.10;;;7.40;;
21521;SDS011;10922;45.572;10.002;2023-02-03T00:36:05;11.20;;;7.22;;
21521;SDS011;10922;45.572;10.002;2023-02-03T00:38:31;9.75;;;7.53;;
21521;SDS011;10922;45.572;10.002;2023-02-03T00:40:57;7.80;;;6.97;;
21521;SDS011;10922;45.572;10.002;2023-02-03T00:43:22;9.83;;;7.07;;
21521;SDS011;10922;45.572;10.002;2023-02-03T00:45:48;8.90;;;7.30;;
21521;SDS011;10922;45.572;10.002;2023-02-03T00:48:14;9.83;;;6.90;;
21521;SDS011;10922;45.572;10.002;2023-02-03T00:50:39;7.85;;;6.80;;
21521;SDS011;10922;45.572;10.002;2023-02-03T00:53:05;9.00;;;6.90;;
21521;SDS011;10922;45.572;10.002;2023-02-03T00:55:31;8.47;;;6.83;;
21521;SDS011;10922;45.572;10.002;2023-02-03T00:57:56;9.38;;;7.15;;
21521;SDS011;10922;45.572;10.002;2023-02-03T01:00:22;8.48;;;7.03;;
21521;SDS011;10922;45.572;10.002;2023-02-03T01:02:48;8.27;;;6.57;;
21521;SDS011;10922;45.572;10.002;2023-02-03T01:05:14;9.27;;;6.77;;
21521;SDS011;10922;45.572;10.002;2023-02-03T01:07:40;7.88;;;6.65;;
21521;SDS011;10922;45.572;10.002;2023-02-03T01:10:06;7.78;;;6.80;;
21521;SDS011;10922;45.572;10.002;2023-02-03T01:12:32;9.80;;;6.80;;
21521;SDS011;10922;45.572;10.002;2023-02-03T01:14:59;8.93;;;6.75;;
21521;SDS011;10922;45.572;10.002;2023-02-03T01:17:24;7.47;;;6.17;;
21521;SDS011;10922;45.572;10.002;2023-02-03T01:19:50;8.73;;;6.43;;
21521;SDS011;10922;45.572;10.002;2023-02-03T01:22:16;8.23;;;6.23;;
21521;SDS011;10922;45.572;10.002;2023-02-03T01:24:42;9.00;;;6.35;;
21521;SDS011;10922;45.572;10.002;2023-02-03T01:27:08;8.33;;;5.87;;
21521;SDS011;10922;45.572;10.002;2023-02-03T01:29:34;9.43;;;5.95;;
21521;SDS011;10922;45.572;10.002;2023-02-03T01:32:00;8.53;;;5.93;;
21521;SDS011;10922;45.572;10.002;2023-02-03T01:34:25;8.05;;;6.00;;
21521;SDS011;10922;45.572;10.002;2023-02-03T01:36:51;7.82;;;5.85;;
21521;SDS011;10922;45.572;10.002;2023-02-03T01:39:17;6.90;;;5.80;;
21521;SDS011;10922;45.572;10.002;2023-02-03T01:41:43;7.03;;;5.53;;
21521;SDS011;10922;45.572;10.002;2023-02-03T01:46:59;6.78;;;5.78;;
21521;SDS011;10922;45.572;10.002;2023-02-03T01:49:28;5.83;;;5.23;;
21521;SDS011;10922;45.572;10.002;2023-02-03T01:51:59;6.20;;;5.60;;
21521;SDS011;10922;45.572;10.002;2023-02-03T01:54:26;7.35;;;5.50;;
21521;SDS011;10922;45.572;10.002;2023-02-03T01:56:57;7.07;;;5.27;;
21521;SDS011;10922;45.572;10.002;2023-02-03T01:59:26;6.22;;;5.40;;
21521;SDS011;10922;45.572;10.002;2023-02-03T02:01:55;6.45;;;5.25;;
21521;SDS011;10922;45.572;10.002;2023-02-03T02:04:22;6.38;;;5.28;;
21521;SDS011;10922;45.572;10.002;2023-02-03T02:06:52;6.85;;;5.60;;
21521;SDS011;10922;45.572;10.002;2023-02-03T02:09:21;6.32;;;5.10;;
21521;SDS011;10922;45.572;10.002;2023-02-03T02:11:48;6.95;;;5.00;;
21521;SDS011;10922;45.572;10.002;2023-02-03T02:14:14;6.27;;;4.83;;
21521;SDS011;10922;45.572;10.002;2023-02-03T02:16:51;5.78;;;4.97;;
21521;SDS011;10922;45.572;10.002;2023-02-03T02:19:43;6.37;;;4.47;;
21521;SDS011;10922;45.572;10.002;2023-02-03T02:25:35;6.10;;;5.30;;
21521;SDS011;10922;45.572;10.002;2023-02-03T02:33:39;5.82;;;5.22;;
21521;SDS011;10922;45.572;10.002;2023-02-03T02:38:47;5.38;;;4.38;;
21521;SDS011;10922;45.572;10.002;2023-02-03T02:43:41;6.70;;;4.53;;
21521;SDS011;10922;45.572;10.002;2023-02-03T02:46:16;4.43;;;4.03;;
21521;SDS011;10922;45.572;10.002;2023-02-03T02:48:52;6.03;;;4.30;;
21521;SDS011;10922;45.572;10.002;2023-02-03T02:51:29;4.90;;;4.40;;
21521;SDS011;10922;45.572;10.002;2023-02-03T02:53:58;4.85;;;4.35;;
21521;SDS011;10922;45.572;10.002;2023-02-03T02:56:27;5.10;;;4.40;;
21521;SDS011;10922;45.572;10.002;2023-02-03T02:58:56;6.97;;;4.57;;
21521;SDS011;10922;45.572;10.002;2023-02-03T03:01:26;5.68;;;4.57;;
21521;SDS011;10922;45.572;10.002;2023-02-03T03:03:51;4.77;;;4.33;;
21521;SDS011;10922;45.572;10.002;2023-02-03T03:08:56;7.57;;;4.77;;
21521;SDS011;10922;45.572;10.002;2023-02-03T03:11:36;4.60;;;4.20;;
21521;SDS011;10922;45.572;10.002;2023-02-03T03:14:09;6.35;;;4.45;;
21521;SDS011;10922;45.572;10.002;2023-02-03T03:16:37;5.32;;;4.38;;
21521;SDS011;10922;45.572;10.002;2023-02-03T03:19:07;5.55;;;4.63;;
21521;SDS011;10922;45.572;10.002;2023-02-03T03:21:46;4.88;;;4.38;;
21521;SDS011;10922;45.572;10.002;2023-02-03T03:24:16;5.50;;;4.23;;
21521;SDS011;10922;45.572;10.002;2023-02-03T03:26:52;4.97;;;4.32;;
21521;SDS011;10922;45.572;10.002;2023-02-03T03:29:30;5.78;;;4.50;;
21521;SDS011;10922;45.572;10.002;2023-02-03T03:31:59;6.38;;;4.30;;
21521;SDS011;10922;45.572;10.002;2023-02-03T03:34:26;4.90;;;4.40;;
21521;SDS011;10922;45.572;10.002;2023-02-03T03:45:27;6.10;;;3.85;;
21521;SDS011;10922;45.572;10.002;2023-02-03T03:48:04;4.20;;;3.80;;
21521;SDS011;10922;45.572;10.002;2023-02-03T03:50:33;5.45;;;4.13;;
21521;SDS011;10922;45.572;10.002;2023-02-03T03:53:05;6.65;;;4.35;;
21521;SDS011;10922;45.572;10.002;2023-02-03T03:55:33;5.18;;;4.25;;
21521;SDS011;10922;45.572;10.002;2023-02-03T03:58:04;5.03;;;3.60;;
21521;SDS011;10922;45.572;10.002;2023-02-03T04:00:36;5.17;;;4.30;;
21521;SDS011;10922;45.572;10.002;2023-02-03T04:03:06;4.88;;;4.40;;
21521;SDS011;10922;45.572;10.002;2023-02-03T04:05:40;4.90;;;4.40;;
21521;SDS011;10922;45.572;10.002;2023-02-03T04:08:06;5.15;;;4.10;;
21521;SDS011;10922;45.572;10.002;2023-02-03T04:10:35;4.40;;;3.97;;
21521;SDS011;10922;45.572;10.002;2023-02-03T04:13:04;6.57;;;4.20;;
21521;SDS011;10922;45.572;10.002;2023-02-03T04:15:30;4.77;;;4.03;;
21521;SDS011;10922;45.572;10.002;2023-02-03T04:17:57;4.45;;;4.05;;
21521;SDS011;10922;45.572;10.002;2023-02-03T04:20:25;5.60;;;4.50;;
21521;SDS011;10922;45.572;10.002;2023-02-03T04:22:54;4.40;;;4.00;;
21521;SDS011;10922;45.572;10.002;2023-02-03T04:25:21;5.82;;;4.60;;
21521;SDS011;10922;45.572;10.002;2023-02-03T04:27:47;5.45;;;4.30;;
21521;SDS011;10922;45.572;10.002;2023-02-03T04:30:13;8.70;;;4.40;;
21521;SDS011;10922;45.572;10.002;2023-02-03T04:32:39;7.30;;;4.57;;
21521;SDS011;10922;45.572;10.002;2023-02-03T04:35:05;5.15;;;4.43;;
21521;SDS011;10922;45.572;10.002;2023-02-03T04:37:31;9.75;;;7.45;;
21521;SDS011;10922;45.572;10.002;2023-02-03T04:39:57;11.50;;;8.38;;
21521;SDS011;10922;45.572;10.002;2023-02-03T04:42:23;12.45;;;8.35;;
21521;SDS011;10922;45.572;10.002;2023-02-03T04:44:49;8.57;;;7.28;;
21521;SDS011;10922;45.572;10.002;2023-02-03T04:47:15;9.00;;;6.90;;
21521;SDS011;10922;45.572;10.002;2023-02-03T04:49:42;13.05;;;7.35;;
21521;SDS011;10922;45.572;10.002;2023-02-03T04:52:08;12.30;;;7.43;;
21521;SDS011;10922;45.572;10.002;2023-02-03T04:54:34;12.23;;;7.22;;
21521;SDS011;10922;45.572;10.002;2023-02-03T04:57:00;13.82;;;9.75;;
21521;SDS011;10922;45.572;10.002;2023-02-03T04:59:25;11.47;;;8.43;;
21521;SDS011;10922;45.572;10.002;2023-02-03T05:01:51;14.57;;;8.10;;
21521;SDS011;10922;45.572;10.002;2023-02-03T05:04:17;13.77;;;8.07;;
21521;SDS011;10922;45.572;10.002;2023-02-03T05:06:42;11.15;;;7.65;;
21521;SDS011;10922;45.572;10.002;2023-02-03T05:09:08;12.47;;;9.03;;
21521;SDS011;10922;45.572;10.002;2023-02-03T05:11:34;11.40;;;7.32;;
21521;SDS011;10922;45.572;10.002;2023-02-03T05:14:02;12.07;;;7.67;;
21521;SDS011;10922;45.572;10.002;2023-02-03T05:16:28;11.60;;;7.65;;
21521;SDS011;10922;45.572;10.002;2023-02-03T05:18:54;12.47;;;8.30;;
21521;SDS011;10922;45.572;10.002;2023-02-03T05:21:19;10.15;;;7.80;;
21521;SDS011;10922;45.572;10.002;2023-02-03T05:23:45;11.93;;;9.15;;
21521;SDS011;10922;45.572;10.002;2023-02-03T05:26:11;11.52;;;8.15;;
21521;SDS011;10922;45.572;10.002;2023-02-03T05:28:37;15.60;;;8.82;;
21521;SDS011;10922;45.572;10.002;2023-02-03T05:31:02;12.30;;;7.90;;
21521;SDS011;10922;45.572;10.002;2023-02-03T05:33:28;11.73;;;8.20;;
21521;SDS011;10922;45.572;10.002;2023-02-03T05:35:54;10.03;;;7.80;;
21521;SDS011;10922;45.572;10.002;2023-02-03T05:38:20;10.18;;;7.45;;
21521;SDS011;10922;45.572;10.002;2023-02-03T05:40:47;12.63;;;8.82;;
21521;SDS011;10922;45.572;10.002;2023-02-03T05:43:31;11.10;;;8.05;;
21521;SDS011;10922;45.572;10.002;2023-02-03T05:46:01;15.75;;;8.20;;
21521;SDS011;10922;45.572;10.002;2023-02-03T05:48:28;16.15;;;8.65;;
21521;SDS011;10922;45.572;10.002;2023-02-03T05:50:53;15.10;;;8.05;;
21521;SDS011;10922;45.572;10.002;2023-02-03T05:53:19;12.37;;;8.87;;
21521;SDS011;10922;45.572;10.002;2023-02-03T05:55:45;11.55;;;9.10;;
21521;SDS011;10922;45.572;10.002;2023-02-03T05:58:10;15.43;;;8.50;;
21521;SDS011;10922;45.572;10.002;2023-02-03T06:00:36;13.50;;;8.30;;
21521;SDS011;10922;45.572;10.002;2023-02-03T06:03:03;12.63;;;8.40;;
21521;SDS011;10922;45.572;10.002;2023-02-03T06:05:29;14.43;;;8.80;;
21521;SDS011;10922;45.572;10.002;2023-02-03T06:07:56;12.48;;;8.15;;
21521;SDS011;10922;45.572;10.002;2023-02-03T06:10:22;14.15;;;8.45;;
21521;SDS011;10922;45.572;10.002;2023-02-03T06:12:48;15.85;;;9.23;;
21521;SDS011;10922;45.572;10.002;2023-02-03T06:15:14;14.33;;;9.13;;
21521;SDS011;10922;45.572;10.002;2023-02-03T06:17:42;15.60;;;9.20;;
21521;SDS011;10922;45.572;10.002;2023-02-03T06:20:10;13.70;;;8.50;;
21521;SDS011;10922;45.572;10.002;2023-02-03T06:22:36;15.90;;;9.63;;
21521;SDS011;10922;45.572;10.002;2023-02-03T06:25:02;21.17;;;11.93;;
21521;SDS011;10922;45.572;10.002;2023-02-03T06:27:28;26.25;;;15.20;;
21521;SDS011;10922;45.572;10.002;2023-02-03T06:29:54;22.10;;;14.33;;
21521;SDS011;10922;45.572;10.002;2023-02-03T06:32:19;28.50;;;16.07;;
21521;SDS011;10922;45.572;10.002;2023-02-03T06:34:45;29.27;;;18.55;;
21521;SDS011;10922;45.572;10.002;2023-02-03T06:37:12;33.20;;;19.80;;
21521;SDS011;10922;45.572;10.002;2023-02-03T06:39:37;33.53;;;19.97;;
21521;SDS011;10922;45.572;10.002;2023-02-03T06:42:03;38.22;;;24.27;;
21521;SDS011;10922;45.572;10.002;2023-02-03T06:44:28;36.15;;;23.48;;
21521;SDS011;10922;45.572;10.002;2023-02-03T06:46:54;39.30;;;24.67;;
21521;SDS011;10922;45.572;10.002;2023-02-03T06:49:20;42.58;;;25.08;;
21521;SDS011;10922;45.572;10.002;2023-02-03T06:51:46;38.58;;;23.55;;
21521;SDS011;10922;45.572;10.002;2023-02-03T06:54:13;46.58;;;27.00;;
21521;SDS011;10922;45.572;10.002;2023-02-03T06:56:38;40.83;;;25.47;;
21521;SDS011;10922;45.572;10.002;2023-02-03T06:59:04;46.78;;;28.55;;
21521;SDS011;10922;45.572;10.002;2023-02-03T07:01:30;49.80;;;30.73;;
21521;SDS011;10922;45.572;10.002;2023-02-03T07:03:56;53.28;;;32.25;;
21521;SDS011;10922;45.572;10.002;2023-02-03T07:06:25;57.42;;;35.22;;
21521;SDS011;10922;45.572;10.002;2023-02-03T07:08:54;63.42;;;39.13;;
21521;SDS011;10922;45.572;10.002;2023-02-03T07:11:20;64.20;;;38.92;;
21521;SDS011;10922;45.572;10.002;2023-02-03T07:13:46;63.63;;;40.00;;
21521;SDS011;10922;45.572;10.002;2023-02-03T07:16:11;66.88;;;39.90;;
21521;SDS011;10922;45.572;10.002;2023-02-03T07:18:37;68.83;;;42.20;;
21521;SDS011;10922;45.572;10.002;2023-02-03T07:21:04;67.85;;;43.25;;
21521;SDS011;10922;45.572;10.002;2023-02-03T07:23:30;71.78;;;43.72;;
21521;SDS011;10922;45.572;10.002;2023-02-03T07:26:03;73.63;;;47.00;;
21521;SDS011;10922;45.572;10.002;2023-02-03T07:28:33;89.72;;;51.08;;
21521;SDS011;10922;45.572;10.002;2023-02-03T07:30:59;93.20;;;56.67;;
21521;SDS011;10922;45.572;10.002;2023-02-03T07:33:25;85.30;;;51.05;;
21521;SDS011;10922;45.572;10.002;2023-02-03T07:35:52;95.13;;;54.77;;
21521;SDS011;10922;45.572;10.002;2023-02-03T07:38:18;95.38;;;57.42;;
21521;SDS011;10922;45.572;10.002;2023-02-03T07:40:44;93.97;;;57.80;;
21521;SDS011;10922;45.572;10.002;2023-02-03T07:43:09;98.43;;;60.57;;
21521;SDS011;10922;45.572;10.002;2023-02-03T07:45:35;99.82;;;61.80;;
21521;SDS011;10922;45.572;10.002;2023-02-03T07:48:00;99.18;;;60.40;;
21521;SDS011;10922;45.572;10.002;2023-02-03T07:50:26;95.70;;;57.43;;
21521;SDS011;10922;45.572;10.002;2023-02-03T07:52:52;95.85;;;60.22;;
21521;SDS011;10922;45.572;10.002;2023-02-03T07:55:19;102.57;;;62.70;;
21521;SDS011;10922;45.572;10.002;2023-02-03T07:57:45;105.95;;;64.50;;
21521;SDS011;10922;45.572;10.002;2023-02-03T08:00:11;116.63;;;71.32;;
21521;SDS011;10922;45.572;10.002;2023-02-03T08:02:38;113.55;;;71.43;;
21521;SDS011;10922;45.572;10.002;2023-02-03T08:05:05;114.72;;;70.50;;
21521;SDS011;10922;45.572;10.002;2023-02-03T08:07:31;129.98;;;80.53;;
21521;SDS011;10922;45.572;10.002;2023-02-03T08:09:57;130.27;;;81.47;;
21521;SDS011;10922;45.572;10.002;2023-02-03T08:12:22;144.40;;;89.67;;
21521;SDS011;10922;45.572;10.002;2023-02-03T08:14:48;147.68;;;93.40;;
21521;SDS011;10922;45.572;10.002;2023-02-03T08:17:13;156.07;;;99.57;;
21521;SDS011;10922;45.572;10.002;2023-02-03T08:19:39;158.77;;;101.47;;
21521;SDS011;10922;45.572;10.002;2023-02-03T08:22:05;155.70;;;101.23;;
21521;SDS011;10922;45.572;10.002;2023-02-03T08:24:30;166.25;;;104.53;;
21521;SDS011;10922;45.572;10.002;2023-02-03T08:26:56;162.68;;;106.00;;
21521;SDS011;10922;45.572;10.002;2023-02-03T08:29:21;167.70;;;106.87;;
21521;SDS011;10922;45.572;10.002;2023-02-03T08:31:47;176.67;;;110.70;;
21521;SDS011;10922;45.572;10.002;2023-02-03T08:34:13;172.98;;;110.03;;
21521;SDS011;10922;45.572;10.002;2023-02-03T08:36:38;173.05;;;110.95;;
21521;SDS011;10922;45.572;10.002;2023-02-03T08:39:07;168.03;;;106.60;;
21521;SDS011;10922;45.572;10.002;2023-02-03T08:41:32;163.67;;;106.67;;
21521;SDS011;10922;45.572;10.002;2023-02-03T08:43:59;174.02;;;109.80;;
21521;SDS011;10922;45.572;10.002;2023-02-03T08:46:25;170.98;;;111.65;;
21521;SDS011;10922;45.572;10.002;2023-02-03T08:48:52;170.63;;;107.97;;
21521;SDS011;10922;45.572;10.002;2023-02-03T08:51:20;163.47;;;106.37;;
21521;SDS011;10922;45.572;10.002;2023-02-03T08:53:46;162.73;;;103.32;;
21521;SDS011;10922;45.572;10.002;2023-02-03T08:56:12;160.90;;;103.90;;
21521;SDS011;10922;45.572;10.002;2023-02-03T08:58:38;160.98;;;104.38;;
21521;SDS011;10922;45.572;10.002;2023-02-03T09:01:08;159.65;;;105.25;;
21521;SDS011;10922;45.572;10.002;2023-02-03T09:03:35;168.37;;;108.80;;
21521;SDS011;10922;45.572;10.002;2023-02-03T09:06:01;163.32;;;107.35;;
21521;SDS011;10922;45.572;10.002;2023-02-03T09:08:27;173.68;;;111.85;;
21521;SDS011;10922;45.572;10.002;2023-02-03T09:10:53;173.10;;;110.17;;
21521;SDS011;10922;45.572;10.002;2023-02-03T09:13:19;169.33;;;109.40;;
21521;SDS011;10922;45.572;10.002;2023-02-03T09:15:45;157.57;;;103.22;;
21521;SDS011;10922;45.572;10.002;2023-02-03T09:18:10;168.48;;;106.70;;
21521;SDS011;10922;45.572;10.002;2023-02-03T09:20:36;169.83;;;110.37;;
21521;SDS011;10922;45.572;10.002;2023-02-03T09:23:02;166.30;;;108.37;;
21521;SDS011;10922;45.572;10.002;2023-02-03T09:25:27;157.07;;;104.95;;
21521;SDS011;10922;45.572;10.002;2023-02-03T09:27:53;155.27;;;103.07;;
21521;SDS011;10922;45.572;10.002;2023-02-03T09:30:19;152.60;;;100.03;;
21521;SDS011;10922;45.572;10.002;2023-02-03T09:32:44;153.93;;;97.40;;
21521;SDS011;10922;45.572;10.002;2023-02-03T09:35:13;147.90;;;98.72;;
21521;SDS011;10922;45.572;10.002;2023-02-03T09:37:39;141.65;;;94.07;;
21521;SDS011;10922;45.572;10.002;2023-02-03T09:40:05;138.88;;;90.25;;
21521;SDS011;10922;45.572;10.002;2023-02-03T09:42:35;143.48;;;94.55;;
21521;SDS011;10922;45.572;10.002;2023-02-03T09:45:23;132.45;;;86.65;;
21521;SDS011;10922;45.572;10.002;2023-02-03T09:47:50;139.82;;;93.07;;
21521;SDS011;10922;45.572;10.002;2023-02-03T09:50:20;152.15;;;97.82;;
21521;SDS011;10922;45.572;10.002;2023-02-03T09:52:48;149.20;;;97.88;;
21521;SDS011;10922;45.572;10.002;2023-02-03T09:58:10;148.20;;;97.18;;
21521;SDS011;10922;45.572;10.002;2023-02-03T10:03:21;137.55;;;89.20;;
21521;SDS011;10922;45.572;10.002;2023-02-03T10:09:37;114.40;;;74.35;;
21521;SDS011;10922;45.572;10.002;2023-02-03T10:17:42;115.50;;;76.07;;
21521;SDS011;10922;45.572;10.002;2023-02-03T10:20:15;104.85;;;68.00;;
21521;SDS011;10922;45.572;10.002;2023-02-03T10:22:49;84.65;;;53.80;;
21521;SDS011;10922;45.572;10.002;2023-02-03T10:25:19;77.20;;;49.47;;
21521;SDS011;10922;45.572;10.002;2023-02-03T10:27:55;70.53;;;45.42;;
21521;SDS011;10922;45.572;10.002;2023-02-03T10:30:26;67.75;;;44.70;;
21521;SDS011;10922;45.572;10.002;2023-02-03T10:35:22;56.43;;;38.50;;
21521;SDS011;10922;45.572;10.002;2023-02-03T10:37:56;58.03;;;37.72;;
21521;SDS011;10922;45.572;10.002;2023-02-03T10:40:23;54.50;;;37.30;;
21521;SDS011;10922;45.572;10.002;2023-02-03T10:42:50;56.35;;;37.80;;
21521;SDS011;10922;45.572;10.002;2023-02-03T11:03:34;57.92;;;40.00;;
21521;SDS011;10922;45.572;10.002;2023-02-03T11:06:04;60.03;;;40.97;;
21521;SDS011;10922;45.572;10.002;2023-02-03T11:08:35;65.63;;;41.88;;
21521;SDS011;10922;45.572;10.002;2023-02-03T11:11:07;69.78;;;44.45;;
21521;SDS011;10922;45.572;10.002;2023-02-03T11:14:09;69.73;;;45.07;;
21521;SDS011;10922;45.572;10.002;2023-02-03T11:16:37;71.38;;;45.88;;
21521;SDS011;10922;45.572;10.002;2023-02-03T11:19:03;68.90;;;45.47;;
21521;SDS011;10922;45.572;10.002;2023-02-03T11:26:45;69.70;;;46.30;;
21521;SDS011;10922;45.572;10.002;2023-02-03T11:29:17;73.07;;;48.20;;
21521;SDS011;10922;45.572;10.002;2023-02-03T11:31:56;72.25;;;47.10;;
21521;SDS011;10922;45.572;10.002;2023-02-03T11:34:30;70.32;;;46.70;;
21521;SDS011;10922;45.572;10.002;2023-02-03T11:39:55;70.55;;;46.78;;
21521;SDS011;10922;45.572;10.002;2023-02-03T11:42:40;68.75;;;46.67;;
21521;SDS011;10922;45.572;10.002;2023-02-03T11:45:28;68.50;;;45.30;;
21521;SDS011;10922;45.572;10.002;2023-02-03T11:54:05;76.97;;;49.70;;
21521;SDS011;10922;45.572;10.002;2023-02-03T11:59:34;76.15;;;51.45;;
21521;SDS011;10922;45.572;10.002;2023-02-03T12:05:27;77.57;;;51.80;;
21521;SDS011;10922;45.572;10.002;2023-02-03T12:08:24;82.57;;;52.92;;
21521;SDS011;10922;45.572;10.002;2023-02-03T12:10:56;77.47;;;52.03;;
21521;SDS011;10922;45.572;10.002;2023-02-03T12:22:53;82.70;;;54.88;;
21521;SDS011;10922;45.572;10.002;2023-02-03T12:25:35;81.53;;;54.90;;
21521;SDS011;10922;45.572;10.002;2023-02-03T12:30:37;88.53;;;58.77;;
21521;SDS011;10922;45.572;10.002;2023-02-03T12:33:18;82.45;;;55.13;;
21521;SDS011;10922;45.572;10.002;2023-02-03T12:35:51;78.53;;;53.93;;
21521;SDS011;10922;45.572;10.002;2023-02-03T12:41:37;83.47;;;56.33;;
21521;SDS011;10922;45.572;10.002;2023-02-03T12:44:16;86.18;;;57.30;;
21521;SDS011;10922;45.572;10.002;2023-02-03T12:46:49;86.93;;;57.45;;
21521;SDS011;10922;45.572;10.002;2023-02-03T12:49:26;89.32;;;58.75;;
21521;SDS011;10922;45.572;10.002;2023-02-03T12:52:02;89.40;;;59.45;;
21521;SDS011;10922;45.572;10.002;2023-02-03T13:06:01;87.72;;;57.75;;
21521;SDS011;10922;45.572;10.002;2023-02-03T13:08:35;85.27;;;58.77;;
21521;SDS011;10922;45.572;10.002;2023-02-03T17:51:20;64.35;;;44.40;;
21521;SDS011;10922;45.572;10.002;2023-02-03T17:53:48;67.72;;;44.45;;
21521;SDS011;10922;45.572;10.002;2023-02-03T17:56:18;70.30;;;44.95;;
21521;SDS011;10922;45.572;10.002;2023-02-03T17:58:53;65.93;;;45.30;;
21521;SDS011;10922;45.572;10.002;2023-02-03T18:01:20;68.68;;;44.55;;
21521;SDS011;10922;45.572;10.002;2023-02-03T18:06:23;64.18;;;42.00;;
21521;SDS011;10922;45.572;10.002;2023-02-03T18:08:53;64.13;;;42.00;;
21521;SDS011;10922;45.572;10.002;2023-02-03T18:11:28;64.25;;;41.95;;
21521;SDS011;10922;45.572;10.002;2023-02-03T18:13:55;61.67;;;40.90;;
21521;SDS011;10922;45.572;10.002;2023-02-03T18:16:21;64.00;;;41.83;;
21521;SDS011;10922;45.572;10.002;2023-02-03T18:19:00;61.45;;;41.42;;
21521;SDS011;10922;45.572;10.002;2023-02-03T18:21:32;62.80;;;42.20;;
21521;SDS011;10922;45.572;10.002;2023-02-03T18:24:01;71.88;;;45.35;;
21521;SDS011;10922;45.572;10.002;2023-02-03T18:26:33;65.90;;;43.77;;
21521;SDS011;10922;45.572;10.002;2023-02-03T18:29:04;69.47;;;47.03;;
21521;SDS011;10922;45.572;10.002;2023-02-03T18:31:30;78.47;;;50.35;;
21521;SDS011;10922;45.572;10.002;2023-02-03T18:33:59;82.38;;;54.25;;
21521;SDS011;10922;45.572;10.002;2023-02-03T18:36:26;88.47;;;57.50;;
21521;SDS011;10922;45.572;10.002;2023-02-03T18:38:52;85.80;;;57.03;;
21521;SDS011;10922;45.572;10.002;2023-02-03T18:41:21;87.23;;;58.77;;
21521;SDS011;10922;45.572;10.002;2023-02-03T18:43:49;91.03;;;59.47;;
21521;SDS011;10922;45.572;10.002;2023-02-03T18:46:16;86.85;;;57.45;;
21521;SDS011;10922;45.572;10.002;2023-02-03T18:48:43;87.18;;;58.20;;
21521;SDS011;10922;45.572;10.002;2023-02-03T18:51:11;89.20;;;56.28;;
21521;SDS011;10922;45.572;10.002;2023-02-03T18:53:39;88.88;;;58.53;;
21521;SDS011;10922;45.572;10.002;2023-02-03T18:56:05;100.38;;;65.75;;
21521;SDS011;10922;45.572;10.002;2023-02-03T18:58:32;108.97;;;75.18;;
21521;SDS011;10922;45.572;10.002;2023-02-03T19:00:58;95.60;;;63.88;;
21521;SDS011;10922;45.572;10.002;2023-02-03T19:03:24;91.28;;;59.63;;
21521;SDS011;10922;45.572;10.002;2023-02-03T19:05:51;94.45;;;61.20;;
21521;SDS011;10922;45.572;10.002;2023-02-03T19:08:18;92.28;;;62.33;;
21521;SDS011;10922;45.572;10.002;2023-02-03T19:10:50;88.80;;;59.87;;
21521;SDS011;10922;45.572;10.002;2023-02-03T19:13:17;103.15;;;70.90;;
21521;SDS011;10922;45.572;10.002;2023-02-03T19:15:46;97.03;;;61.90;;
21521;SDS011;10922;45.572;10.002;2023-02-03T19:18:13;89.20;;;60.15;;
21521;SDS011;10922;45.572;10.002;2023-02-03T19:20:41;87.82;;;58.05;;
21521;SDS011;10922;45.572;10.002;2023-02-03T19:23:07;91.40;;;61.67;;
21521;SDS011;10922;45.572;10.002;2023-02-03T19:25:36;90.23;;;60.47;;
21521;SDS011;10922;45.572;10.002;2023-02-03T19:28:02;82.75;;;55.45;;
21521;SDS011;10922;45.572;10.002;2023-02-03T19:30:28;92.57;;;59.63;;
21521;SDS011;10922;45.572;10.002;2023-02-03T19:32:56;79.10;;;52.63;;
21521;SDS011;10922;45.572;10.002;2023-02-03T19:35:25;79.25;;;50.88;;
21521;SDS011;10922;45.572;10.002;2023-02-03T19:37:50;81.18;;;52.67;;
21521;SDS011;10922;45.572;10.002;2023-02-03T19:40:17;80.60;;;52.20;;
21521;SDS011;10922;45.572;10.002;2023-02-03T19:42:44;77.18;;;51.35;;
21521;SDS011;10922;45.572;10.002;2023-02-03T19:45:26;84.25;;;54.42;;
21521;SDS011;10922;45.572;10.002;2023-02-03T19:47:51;82.33;;;51.50;;
21521;SDS011;10922;45.572;10.002;2023-02-03T19:50:17;81.60;;;51.53;;
21521;SDS011;10922;45.572;10.002;2023-02-03T19:52:43;77.15;;;50.85;;
21521;SDS011;10922;45.572;10.002;2023-02-03T19:55:11;76.85;;;51.20;;
21521;SDS011;10922;45.572;10.002;2023-02-03T19:57:38;75.67;;;51.63;;
21521;SDS011;10922;45.572;10.002;2023-02-03T20:00:04;82.82;;;53.97;;
21521;SDS011;10922;45.572;10.002;2023-02-03T20:02:30;78.85;;;49.88;;
21521;SDS011;10922;45.572;10.002;2023-02-03T20:04:56;77.90;;;49.00;;
21521;SDS011;10922;45.572;10.002;2023-02-03T20:07:21;71.43;;;47.90;;
21521;SDS011;10922;45.572;10.002;2023-02-03T20:09:48;75.07;;;48.80;;
21521;SDS011;10922;45.572;10.002;2023-02-03T20:12:14;73.37;;;47.90;;
21521;SDS011;10922;45.572;10.002;2023-02-03T20:14:40;68.97;;;44.58;;
21521;SDS011;10922;45.572;10.002;2023-02-03T20:17:09;68.78;;;44.95;;
21521;SDS011;10922;45.572;10.002;2023-02-03T20:19:34;71.77;;;46.83;;
21521;SDS011;10922;45.572;10.002;2023-02-03T20:22:00;72.87;;;46.27;;
21521;SDS011;10922;45.572;10.002;2023-02-03T20:24:26;69.18;;;45.15;;
21521;SDS011;10922;45.572;10.002;2023-02-03T20:26:52;68.70;;;45.22;;
21521;SDS011;10922;45.572;10.002;2023-02-03T20:29:18;67.80;;;43.73;;
21521;SDS011;10922;45.572;10.002;2023-02-03T20:31:47;71.15;;;46.85;;
21521;SDS011;10922;45.572;10.002;2023-02-03T20:34:12;72.20;;;47.08;;
21521;SDS011;10922;45.572;10.002;2023-02-03T20:36:38;74.45;;;49.35;;
21521;SDS011;10922;45.572;10.002;2023-02-03T20:39:05;62.63;;;43.13;;
21521;SDS011;10922;45.572;10.002;2023-02-03T20:41:30;74.80;;;49.97;;
21521;SDS011;10922;45.572;10.002;2023-02-03T20:43:56;69.97;;;47.20;;
21521;SDS011;10922;45.572;10.002;2023-02-03T20:46:21;68.70;;;45.27;;
21521;SDS011;10922;45.572;10.002;2023-02-03T20:48:47;66.13;;;44.67;;
21521;SDS011;10922;45.572;10.002;2023-02-03T20:51:13;67.40;;;46.47;;
21521;SDS011;10922;45.572;10.002;2023-02-03T20:53:41;68.18;;;44.53;;